Terminal Aerodrome Forecast
Issued by NWS

Home | Current Version | Previous Version | Graphics & Text | Print | Product List | Glossary On
Versions: 1 2 3 4 5 6 7 8 9 10 11 12 13 14 15 16 17 18 19 20 21 22 23 24 25 26 27 28
000
FTUS43 KABR 220805 AAA
TAFMBG
TAF AMD
KMBG 220805Z 2208/2306 11007KT P6SM BKN015
     FM221700 14009KT P6SM SKC
     FM230000 08016G25KT P6SM BKN250
      TEMPO 2300/2304 -TSRA OVC050CB=

USA.gov is the U.S. government's official web portal to all federal, state and local government web resources and services.